Tiempo atmosférico en la estación meteorológica de Barcena de Cicero, Treto, Cantabria (10 m.)



Fecha
DESCASC
Temp. máxima en grados centígrados (hora)
DESCASC
Temp. mínima en grados centígrados (hora)
DESCASC
Temp. media en grados centígrados
DESCASC
Racha de viento máxima en m/sg (hora)
DESCASC
Velocidad máxima media en intervalos de 10 minutos(hora)
DESCASC
Precipitaciones diarias en mm
DESCASC
Precipitaciones de 00:00 a 06:00 en mm
DESCASC
Precipitaciones de 06:00 a 12:00 en mm
DESCASC
Precipitaciones de 12:00 a 18:00 en mm
DESCASC
Precipitaciones de 18:00 a 24:00 en mm
DESCASC
15-07-2018 26 (16:00) 19.2 (23:40) 22.6 7.5 (22:00) 4.44 (22:00) 4.2 0 0 0 4.2
14-07-2018 25.5 (13:40) 18.4 (07:40) 21.9 6.39 (01:50) 3.89 (12:30) 1.8 1.8 0 0 0
13-07-2018 24.2 (17:20) 15.2 (06:40) 19.7 9.17 (13:20) 6.39 (14:30) 0.8 0 0 0 0.8
12-07-2018 24.4 (15:50) 17.6 (00:00) 21 7.78 (04:00) 5.28 (19:30) 38.4 35 3.4 0 0
11-07-2018 26.2 (14:10) 17.2 (00:00) 21.7 7.78 (17:20) 5 (17:20) 0 0 0 0 0
10-07-2018 26.7 (13:10) 17.1 (00:00) 21.9 6.11 (15:00) 3.61 (09:20) 0 0 0 0 0
09-07-2018 26.6 (13:00) 18.2 (00:00) 22.4 6.11 (14:20) 3.61 (15:40) 0 0 0 0 0
08-07-2018 25.6 (16:40) 19.5 (06:40) 22.6 6.11 (15:10) 3.61 (13:00) 0 0 0 0 0
07-07-2018 23.6 (17:40) 16.7 (00:00) 20.2 7.5 (14:30) 5.28 (13:40) 0 0 0 0 0
06-07-2018 22.7 (15:10) 17.7 (00:00) 20.2 9.17 (17:40) 6.11 (16:50) 0 0 0 0 0
05-07-2018 21.5 (18:10) 17.4 (04:50) 19.4 10 (11:50) 4.72 (11:50) 4.4 0 1 3.4 0
04-07-2018 20.9 (00:00) 18.1 (23:00) 19.5 6.94 (15:40) 3.61 (17:20) 23.6 0 0.8 10 12.8
03-07-2018 23.5 (12:50) 18.8 (01:10) 21.1 6.39 (17:10) 4.17 (14:40) 0 0 0 0 0
02-07-2018 23.8 (13:00) 16.3 (07:20) 20 7.22 (00:10) 3.89 (14:10) 4.6 4.6 0 0 0
01-07-2018 24.2 (13:40) 17.5 (00:00) 20.9 15.28 (23:59) 6.39 (23:59) 4.6 0 0 0.2 4.4
30-06-2018 25.8 (13:50) 17.8 (06:20) 21.8 7.78 (17:10) 4.44 (17:10) 6.6 0 0.2 0 6.4
29-06-2018 22.8 (12:20) 16.2 (00:00) 19.5 8.06 (17:00) 5 (17:40) 0.6 0 0 0 0.6
28-06-2018 20.8 (17:20) 17.1 (00:00) 18.9 4.17 (13:20) 2.5 (13:20) 0 0 0 0 0
27-06-2018 20.1 (16:00) 17.8 (00:00) 18.9 5.28 (14:50) 3.33 (14:50) 4.8 0 2.4 0 2.4
26-06-2018 24.4 (15:30) 14.4 (00:00) 19.4 10.83 (23:00) 5 (23:00) 0 0 0 0 0
25-06-2018 23 (12:20) 14.2 (00:00) 18.6 12.22 (15:30) 7.78 (15:00) 0 0 0 0 0
24-06-2018 23.6 (15:30) 13.1 (00:00) 18.4 11.94 (17:10) 8.06 (17:20) 0 0 0 0 0
23-06-2018 21.3 (14:20) 12.8 (00:00) 17 11.39 (16:10) 8.06 (16:40) 0 0 0 0 0
22-06-2018 22.2 (12:20) 16.2 (23:59) 19.2 8.33 (16:00) 5.56 (15:30) 0 0 0 0 0
21-06-2018 24.5 (16:50) 19.5 (00:00) 22 7.78 (14:10) 4.72 (14:50) 0 0 0 0 0
20-06-2018 22.8 (13:30) 14.8 (00:00) 18.8 5.83 (14:20) 3.33 (14:20) 0 0 0 0 0
19-06-2018 19.9 (13:50) 16.5 (00:00) 18.2 9.72 (16:50) 6.11 (18:50) 1.6 1.6 0 0 0
18-06-2018 21.5 (15:10) 13.2 (00:00) 17.3 8.61 (15:40) 4.17 (15:20) 0 0 0 0 0
17-06-2018 20.6 (15:40) 13.6 (00:00) 17.1 7.5 (16:20) 3.89 (16:20) 0 0 0 0 0

Gráficas

Temp. máximas Temp. mínimas Temp. medias Precipitaciones Rachas de viento máximas Velocidades máximas media en intervalos de 10 minutos

Datos horarios

Fecha y hora oficial Temperatura (ºC) Velocidad del viento (km/h) Dirección del viento Racha (km/h) Dirección de racha Precipitación (mm) Presión (hPa) Tendencia (hPa) Humedad (%)
2018-07-16 23:00:00 19.5 0 Calma 8 Oeste 0 -- -- 87
2018-07-16 22:00:00 20.4 3 Oeste 10 Noroeste 0 -- -- 84
2018-07-16 21:00:00 22.1 5 Noroeste 14 Noroeste 0 -- -- 78
2018-07-16 20:00:00 22.3 5 Noroeste 18 Oeste 0 -- -- 76
2018-07-16 19:00:00 23.1 9 Noroeste 23 Norte 0 -- -- 74
2018-07-16 18:00:00 22.9 12 Noroeste 27 Noroeste 0 -- -- 66
2018-07-16 17:00:00 22.9 17 Noroeste 28 Norte 0 -- -- 71
2018-07-16 16:00:00 22.9 12 Noroeste 24 Oeste 0 -- -- 77
2018-07-16 15:00:00 20.6 10 Noroeste 22 Oeste 0 -- -- 87
2018-07-16 14:00:00 20.3 12 Oeste 27 Oeste 0 -- -- 87
2018-07-16 13:00:00 19.8 11 Oeste 24 Oeste 0 -- -- 88
2018-07-16 12:00:00 20.2 10 Oeste 22 Sudoeste 0 -- -- 90
2018-07-16 11:00:00 18.5 11 Oeste 32 Oeste 2.8 -- -- 93
2018-07-16 10:00:00 18.8 14 Oeste 30 Oeste 0.2 -- -- 89
2018-07-16 09:00:00 19.6 7 Oeste 22 Noroeste 0 -- -- 86
2018-07-16 08:00:00 19.3 9 Oeste 25 Oeste 0 -- -- 84
2018-07-16 07:00:00 19 10 Oeste 22 Noroeste 0 -- -- 85
2018-07-16 06:00:00 19.3 9 Oeste 26 Noroeste 0 -- -- 84
2018-07-16 05:00:00 19.6 11 Oeste 22 Oeste 0 -- -- 84
2018-07-16 04:00:00 19.6 11 Oeste 22 Oeste 0 -- -- 84
2018-07-16 03:00:00 19.7 6 Sudoeste 20 Oeste 0 -- -- 86
2018-07-16 02:00:00 20 7 Oeste 21 Oeste 0 -- -- 87
2018-07-16 01:00:00 19.9 10 Oeste 26 Oeste 0 -- -- 93
2018-07-16 00:00:00 19.5 5 Sur 10 Oeste 1 -- -- 95
2018-07-15 23:00:00 19.7 6 Noroeste 25 Oeste 2.6 -- -- 91
2018-07-15 22:00:00 20.9 16 Noroeste 27 Noroeste 0.2 -- -- 90
2018-07-15 21:00:00 22 3 Oeste 15 Noroeste 0.2 -- -- 91
2018-07-15 20:00:00 22.4 7 Noroeste 13 Oeste 0.2 -- -- 90
2018-07-15 19:00:00 22.8 8 Oeste 20 Noroeste 0 -- -- 88
2018-07-15 18:00:00 23.2 9 Noroeste 25 Noroeste 0 -- -- 86
2018-07-15 17:00:00 24.4 13 Noroeste 27 Noroeste 0 -- -- 81
2018-07-15 16:00:00 26 10 Norte 21 Noroeste 0 -- -- 78
2018-07-15 15:00:00 25 13 Noroeste 23 Norte 0 -- -- 78
2018-07-15 14:00:00 24.5 12 Noroeste 21 Noroeste 0 -- -- 82
2018-07-15 13:00:00 24.9 11 Noroeste 19 Norte 0 -- -- 80
2018-07-15 12:00:00 25.4 10 Noroeste 17 Noroeste 0 -- -- 78
2018-07-15 11:00:00 24.1 7 Noroeste 14 Noroeste 0 -- -- 83
2018-07-15 10:00:00 23.3 7 Oeste 14 Oeste 0 -- -- 88
2018-07-15 09:00:00 21.8 6 Sur 13 Sudeste 0 -- -- 96
2018-07-15 08:00:00 20.4 6 Sur 13 Sur 0 -- -- 98
2018-07-15 07:00:00 20.1 6 Sur 11 Sur 0 -- -- 97
2018-07-15 06:00:00 20.4 5 Sur 12 Sudeste 0 -- -- 96
2018-07-15 05:00:00 20.8 7 Sur 11 Sur 0 -- -- 96
2018-07-15 04:00:00 21 4 Sur 9 Sur 0 -- -- 97
2018-07-15 03:00:00 20.7 3 Oeste 14 Sudoeste 0 -- -- 97
2018-07-15 02:00:00 20.7 6 Sudeste 10 Sudeste 0 -- -- 96
2018-07-15 01:00:00 20.9 4 Sudeste 7 Sudeste 0 -- -- 95
2018-07-15 00:00:00 21.6 3 Sudeste 6 Sur 0 -- -- 91
2018-07-14 23:00:00 22.6 2 Noroeste 6 Noroeste 0 -- -- 89
2018-07-14 22:00:00 23.1 0 Calma 8 Noroeste 0 -- -- 86
2018-07-14 21:00:00 24.2 4 Norte 8 Este 0 -- -- 82
2018-07-14 20:00:00 24.9 5 Nordeste 17 Nordeste 0 -- -- 80
2018-07-14 19:00:00 25.3 8 Nordeste 15 Este 0 -- -- 80
2018-07-14 18:00:00 25.2 9 Nordeste 16 Norte 0 -- -- 80
2018-07-14 17:00:00 25.5 8 Nordeste 15 Nordeste 0 -- -- 80
2018-07-14 16:00:00 25.3 8 Nordeste 16 Nordeste 0 -- -- 78
2018-07-14 15:00:00 25.1 11 Nordeste 19 Nordeste 0 -- -- 78
2018-07-14 14:00:00 25.4 9 Norte 20 Norte 0 -- -- 77
2018-07-14 13:00:00 24.9 13 Nordeste 21 Este 0 -- -- 78
2018-07-14 12:00:00 25.4 8 Nordeste 12 Este 0 -- -- 77
2018-07-14 11:00:00 24.4 4 Este 8 Este 0 -- -- 79
2018-07-14 10:00:00 22.1 6 Sur 15 Sudeste 0 -- -- 89
2018-07-14 09:00:00 20.2 8 Sur 15 Sur 0 -- -- 97
2018-07-14 08:00:00 18.8 7 Sur 14 Sur 0 -- -- 99
2018-07-14 07:00:00 18.7 5 Sur 11 Sudeste 0 -- -- 98
2018-07-14 06:00:00 18.9 6 Sur 11 Sur 0 -- -- 98
2018-07-14 05:00:00 19.3 6 Sur 9 Sur 0 -- -- 97
2018-07-14 04:00:00 19.9 0 Calma 12 Sudoeste 0 -- -- 95
2018-07-14 03:00:00 21 3 Sur 20 Nordeste 0 -- -- 92
2018-07-14 02:00:00 21.5 7 Nordeste 23 Nordeste 0.2 -- -- 91
2018-07-14 01:00:00 20.9 5 Sudoeste 13 Sur 1.6 -- -- 96
2018-07-14 00:00:00 21 4 Sur 15 Oeste 0.8 -- -- 93
2018-07-13 23:00:00 22.2 0 Calma 11 Sudoeste 0 -- -- 87
2018-07-13 22:00:00 22.7 5 Norte 10 Norte 0 -- -- 84
2018-07-13 21:00:00 22.8 4 Este 14 Nordeste 0 -- -- 84
2018-07-13 20:00:00 22.8 10 Este 23 Este 0 -- -- 83
2018-07-13 19:00:00 23.2 16 Este 27 Este 0 -- -- 80
2018-07-13 18:00:00 23.9 17 Este 29 Nordeste 0 -- -- 79
2018-07-13 17:00:00 23.9 20 Este 32 Nordeste 0 -- -- 80
2018-07-13 16:00:00 23.9 18 Nordeste 31 Nordeste 0 -- -- 78
2018-07-13 15:00:00 23.7 21 Nordeste 32 Este 0 -- -- 80
2018-07-13 14:00:00 23.3 21 Nordeste 33 Nordeste 0 -- -- 81
2018-07-13 13:00:00 23.7 18 Nordeste 30 Nordeste 0 -- -- 75
2018-07-13 12:00:00 23.7 17 Nordeste 25 Este 0 -- -- 71
2018-07-13 11:00:00 23 10 Nordeste 18 Nordeste 0 -- -- 76
2018-07-13 10:00:00 20.8 4 Sur 13 Sur 0 -- -- 83
2018-07-13 09:00:00 18 9 Sur 17 Sudeste 0 -- -- 92
2018-07-13 08:00:00 15.8 8 Sur 17 Sur 0 -- -- 97
2018-07-13 07:00:00 15.5 9 Sur 18 Sudeste 0 -- -- 97
2018-07-13 06:00:00 15.6 8 Sur 16 Sur 0 -- -- 97
2018-07-13 05:00:00 15.5 4 Sur 12 Sur 0 -- -- 97
2018-07-13 04:00:00 15.7 4 Sudoeste 13 Sur 0 -- -- 97
2018-07-13 03:00:00 16.2 7 Sur 18 Sur 0 -- -- 97
2018-07-13 02:00:00 16.5 4 Sur 10 Sur 0 -- -- 95
2018-07-13 01:00:00 17.2 6 Sur 12 Sudeste 0 -- -- 94
2018-07-13 00:00:00 18 6 Sur 10 Sur 0 -- -- 92
2018-07-12 23:00:00 18.8 2 Oeste 3 Sur 0 -- -- 87
2018-07-12 22:00:00 20.7 0 Calma 18 Este 0 -- -- 80
2018-07-12 21:00:00 22.3 12 Este 25 Este 0 -- -- 71
2018-07-12 20:00:00 22.8 15 Este 27 Este 0 -- -- 73
2018-07-12 19:00:00 23.1 15 Nordeste 25 Este 0 -- -- 75
2018-07-12 18:00:00 23.3 7 Norte 13 Norte 0 -- -- 81
2018-07-12 17:00:00 23.5 5 Norte 15 Nordeste 0 -- -- 77
2018-07-12 16:00:00 24.1 10 Nordeste 17 Nordeste 0 -- -- 75
2018-07-12 15:00:00 23.8 6 Noroeste 17 Noroeste 0 -- -- 76
2018-07-12 14:00:00 23.4 8 Noroeste 14 Noroeste 0 -- -- 76
2018-07-12 13:00:00 22.2 6 Noroeste 15 Noroeste 0 -- -- 80
2018-07-12 12:00:00 21.4 7 Oeste 15 Oeste 0 -- -- 86
2018-07-12 11:00:00 19.8 5 Sur 9 Sur 0 -- -- 95
2018-07-12 10:00:00 18.7 3 Sur 9 Sudeste 0 -- -- 98
2018-07-12 09:00:00 18.2 2 Sur 6 Sur 0 -- -- 98
2018-07-12 08:00:00 17.8 0 Calma 8 Sur 0.2 -- -- 98
2018-07-12 07:00:00 17.6 3 Sudoeste 12 Sur 3.2 -- -- 97
2018-07-12 06:00:00 17.8 6 Sudoeste 17 Sudoeste 2.4 -- -- 96
2018-07-12 05:00:00 17.8 7 Oeste 27 Oeste 11.2 -- -- 96
2018-07-12 04:00:00 18.5 11 Noroeste 28 Noroeste 6.8 -- -- 95
2018-07-12 03:00:00 19 3 Oeste 13 Oeste 0.8 -- -- 94
2018-07-12 02:00:00 19 4 Noroeste 27 Oeste 13.8 -- -- 93
2018-07-12 01:00:00 20.7 12 Noroeste 22 Oeste 0 -- -- 82
2018-07-12 00:00:00 21.7 5 Sur 9 Sudeste 0 -- -- 92
2018-07-11 23:00:00 22.3 3 Sur 6 Oeste 0 -- -- 90
2018-07-11 22:00:00 22.8 3 Noroeste 10 Este 0 -- -- 87
2018-07-11 21:00:00 23.5 6 Este 10 Nordeste 0 -- -- 84
2018-07-11 20:00:00 23.9 5 Nordeste 9 Nordeste 0 -- -- 81
2018-07-11 19:00:00 24.1 4 Norte 12 Nordeste 0 -- -- 79
2018-07-11 18:00:00 24.1 7 Nordeste 28 Este 0 -- -- 78
2018-07-11 17:00:00 23.5 15 Nordeste 21 Este 0 -- -- 83
2018-07-11 16:00:00 24.2 9 Nordeste 23 Nordeste 0 -- -- 78
2018-07-11 15:00:00 25 8 Nordeste 20 Nordeste 0 -- -- 73
2018-07-11 14:00:00 25.9 9 Nordeste 19 Nordeste 0 -- -- 69
2018-07-11 13:00:00 24.6 8 Nordeste 19 Norte 0 -- -- 75
2018-07-11 12:00:00 24.5 8 Nordeste 15 Nordeste 0 -- -- 78
2018-07-11 11:00:00 23.7 4 Nordeste 13 Sur 0 -- -- 79
2018-07-11 10:00:00 21.1 8 Sur 18 Sur 0 -- -- 86
2018-07-11 09:00:00 19.1 12 Sur 20 Sur 0 -- -- 95
2018-07-11 08:00:00 17.6 9 Sur 18 Sur 0 -- -- 97
2018-07-11 07:00:00 17.2 6 Sur 15 Sudeste 0 -- -- 97
2018-07-11 06:00:00 17.6 8 Sur 15 Sudeste 0 -- -- 97
2018-07-11 05:00:00 18.1 6 Sur 15 Sur 0 -- -- 96
2018-07-11 04:00:00 18.6 6 Sur 13 Sur 0 -- -- 97
2018-07-11 03:00:00 18.9 6 Sur 10 Sur 0 -- -- 97
2018-07-11 02:00:00 19.4 5 Sur 10 Sur 0 -- -- 96
2018-07-11 01:00:00 19.4 5 Sudeste 8 Sur 0 -- -- 95
2018-07-11 00:00:00 20.4 4 Sur 7 Sur 0 -- -- 93
2018-07-10 23:00:00 21.3 3 Noroeste 4 Noroeste 0 -- -- 90
2018-07-10 22:00:00 22.9 3 Noroeste 10 Norte 0 -- -- 87
2018-07-10 21:00:00 24.5 5 Nordeste 11 Norte 0 -- -- 81
2018-07-10 20:00:00 25 6 Norte 17 Norte 0 -- -- 76
2018-07-10 19:00:00 25.2 10 Norte 19 Nordeste 0 -- -- 81
2018-07-10 18:00:00 25.5 10 Nordeste 19 Norte 0 -- -- 75
2018-07-10 17:00:00 26 10 Nordeste 21 Nordeste 0 -- -- 70
2018-07-10 16:00:00 26.3 9 Nordeste 21 Norte 0 -- -- 67
2018-07-10 15:00:00 25.7 11 Nordeste 22 Nordeste 0 -- -- 78
2018-07-10 14:00:00 26.2 9 Nordeste 20 Nordeste 0 -- -- 75
2018-07-10 13:00:00 26.6 9 Nordeste 15 Nordeste 0 -- -- 71
2018-07-10 12:00:00 25.7 8 Noroeste 14 Noroeste 0 -- -- 72
2018-07-10 11:00:00 24.3 4 Sudeste 9 Sudeste 0 -- -- 80
2018-07-10 10:00:00 21.5 7 Sudeste 17 Sudeste 0 -- -- 86
2018-07-10 09:00:00 19 10 Sur 17 Sudeste 0 -- -- 94
2018-07-10 08:00:00 17.3 7 Sur 17 Sudeste 0 -- -- 96
2018-07-10 07:00:00 17.4 8 Sur 17 Sur 0 -- -- 96
2018-07-10 06:00:00 17.9 6 Sur 14 Sudeste 0 -- -- 95
2018-07-10 05:00:00 18.1 9 Sur 18 Sur 0 -- -- 96
2018-07-10 04:00:00 18.1 5 Sur 10 Sur 0 -- -- 97
2018-07-10 03:00:00 18.3 6 Sur 13 Sur 0 -- -- 96
2018-07-10 02:00:00 18.8 4 Sur 7 Sur 0 -- -- 95
2018-07-10 01:00:00 19.3 5 Sudeste 7 Sur 0 -- -- 94
2018-07-10 00:00:00 19.9 0 Calma 4 Sudoeste 0 -- -- 92
2018-07-09 23:00:00 21 3 Sur 5 Sur 0 -- -- 90
2018-07-09 22:00:00 23.3 0 Calma 6 Noroeste 0 -- -- 87
2018-07-09 21:00:00 25 2 Noroeste 9 Norte 0 -- -- 80
2018-07-09 20:00:00 25.1 6 Nordeste 12 Nordeste 0 -- -- 83
2018-07-09 19:00:00 25.5 8 Nordeste 16 Este 0 -- -- 81
2018-07-09 18:00:00 25.9 8 Nordeste 18 Norte 0 -- -- 81
2018-07-09 17:00:00 25.9 13 Norte 20 Norte 0 -- -- 78
2018-07-09 16:00:00 25.9 13 Nordeste 21 Norte 0 -- -- 77
2018-07-09 15:00:00 26.2 10 Nordeste 22 Norte 0 -- -- 75
2018-07-09 14:00:00 25.9 10 Nordeste 20 Nordeste 0 -- -- 80
2018-07-09 13:00:00 26.6 9 Nordeste 18 Nordeste 0 -- -- 74
2018-07-09 12:00:00 26 9 Nordeste 13 Nordeste 0 -- -- 77
2018-07-09 11:00:00 25.3 3 Sudeste 10 Sudeste 0 -- -- 78
2018-07-09 10:00:00 22.8 6 Sur 17 Sur 0 -- -- 85
2018-07-09 09:00:00 20.3 12 Sur 18 Sur 0 -- -- 94
2018-07-09 08:00:00 18.7 11 Sur 15 Sudeste 0 -- -- 98
2018-07-09 07:00:00 18.3 5 Sur 11 Sur 0 -- -- 98
2018-07-09 06:00:00 18.8 5 Sur 11 Sur 0 -- -- 98
2018-07-09 05:00:00 19.3 6 Sur 12 Sur 0 -- -- 98
2018-07-09 04:00:00 19.7 6 Sur 11 Sur 0 -- -- 98
2018-07-09 03:00:00 20 3 Sur 9 Oeste 0 -- -- 97
2018-07-09 02:00:00 20.4 3 Oeste 8 Sudoeste 0 -- -- 96
2018-07-09 01:00:00 20.4 2 Noroeste 4 Noroeste 0 -- -- 95
2018-07-09 00:00:00 21 0 Calma 6 Noroeste 0 -- -- 94
2018-07-08 23:00:00 22 2 Noroeste 5 Nordeste 0 -- -- 91
2018-07-08 22:00:00 23.3 4 Norte 8 Nordeste 0 -- -- 86
2018-07-08 21:00:00 24.3 0 Calma 11 Norte 0 -- -- 83
2018-07-08 20:00:00 24.3 7 Norte 14 Este 0 -- -- 83
2018-07-08 19:00:00 24.6 8 Nordeste 16 Norte 0 -- -- 79
2018-07-08 18:00:00 25.3 11 Norte 22 Norte 0 -- -- 78
2018-07-08 17:00:00 25.6 11 Nordeste 20 Nordeste 0 -- -- 77
2018-07-08 16:00:00 25 13 Nordeste 22 Nordeste 0 -- -- 80
2018-07-08 15:00:00 24.9 12 Nordeste 20 Norte 0 -- -- 81
2018-07-08 14:00:00 24.7 9 Norte 18 Norte 0 -- -- 83
2018-07-08 13:00:00 24.7 13 Este 18 Nordeste 0 -- -- 81
2018-07-08 12:00:00 24.3 4 Sudeste 7 Este 0 -- -- 81
2018-07-08 11:00:00 23 3 Sudeste 12 Sudeste 0 -- -- 83
2018-07-08 10:00:00 22.1 5 Sudeste 9 Sur 0 -- -- 87
2018-07-08 09:00:00 21 5 Sur 8 Sudeste 0 -- -- 93
2018-07-08 08:00:00 19.8 5 Sur 10 Sudeste 0 -- -- 96
2018-07-08 07:00:00 19.6 2 Sur 8 Sur 0 -- -- 96
2018-07-08 06:00:00 19.6 5 Sur 8 Sudeste 0 -- -- 94
2018-07-08 05:00:00 20 4 Sur 9 Sudeste 0 -- -- 94
2018-07-08 04:00:00 20.2 3 Sudeste 7 Sur 0 -- -- 93
2018-07-08 03:00:00 20.8 0 Calma 8 Sur 0 -- -- 92
2018-07-08 02:00:00 21 2 Sur 5 Sudeste 0 -- -- 92
2018-07-08 01:00:00 21.2 2 Oeste 6 Noroeste 0 -- -- 91
2018-07-08 00:00:00 21.1 4 Noroeste 7 Noroeste 0 -- -- 91
2018-07-07 23:00:00 21.4 3 Sudeste 8 Este 0 -- -- 88
2018-07-07 22:00:00 21.9 4 Nordeste 10 Este 0 -- -- 85
2018-07-07 21:00:00 22.3 5 Norte 14 Norte 0 -- -- 83
2018-07-07 20:00:00 22.7 8 Nordeste 16 Nordeste 0 -- -- 84
2018-07-07 19:00:00 22.9 8 Nordeste 19 Nordeste 0 -- -- 83
2018-07-07 18:00:00 23.1 9 Nordeste 19 Nordeste 0 -- -- 83
2018-07-07 17:00:00 23.2 14 Nordeste 26 Nordeste 0 -- -- 80
2018-07-07 16:00:00 23.3 14 Nordeste 24 Este 0 -- -- 82
2018-07-07 15:00:00 23.2 14 Nordeste 27 Nordeste 0 -- -- 82
2018-07-07 14:00:00 22.5 16 Nordeste 25 Nordeste 0 -- -- 83
2018-07-07 13:00:00 22.9 15 Nordeste 26 Este 0 -- -- 80
2018-07-07 12:00:00 23 13 Nordeste 22 Nordeste 0 -- -- 75
2018-07-07 11:00:00 22.5 10 Nordeste 18 Nordeste 0 -- -- 82
2018-07-07 10:00:00 20.3 2 Sur 6 Este 0 -- -- 91
2018-07-07 09:00:00 18 5 Sur 12 Sudeste 0 -- -- 96
2018-07-07 08:00:00 17.2 4 Sur 8 Sudeste 0 -- -- 96
2018-07-07 07:00:00 16.9 3 Sudeste 6 Sudeste 0 -- -- 96
2018-07-07 06:00:00 17 3 Este 12 Sur 0 -- -- 96
2018-07-07 05:00:00 16.8 6 Sur 11 Sudeste 0 -- -- 97
2018-07-07 04:00:00 16.8 4 Sur 12 Sur 0 -- -- 97
2018-07-07 03:00:00 17.1 5 Sur 9 Sur 0 -- -- 96
2018-07-07 02:00:00 17.7 3 Sur 9 Sur 0 -- -- 95
2018-07-07 01:00:00 18.5 4 Sudeste 6 Sur 0 -- -- 92
2018-07-07 00:00:00 19.8 0 Calma 9 Este 0 -- -- 88
2018-07-06 23:00:00 20.5 5 Este 13 Este 0 -- -- 85
2018-07-06 22:00:00 20.9 9 Este 15 Nordeste 0 -- -- 84
2018-07-06 21:00:00 21.1 8 Nordeste 19 Este 0 -- -- 82
2018-07-06 20:00:00 21.5 11 Nordeste 23 Este 0 -- -- 81
2018-07-06 19:00:00 22 18 Este 27 Nordeste 0 -- -- 78
2018-07-06 18:00:00 21.5 20 Este 33 Nordeste 0 -- -- 79
2018-07-06 17:00:00 22.1 21 Nordeste 31 Nordeste 0 -- -- 79
2018-07-06 16:00:00 22.7 14 Nordeste 24 Este 0 -- -- 77
2018-07-06 15:00:00 22.4 12 Nordeste 22 Nordeste 0 -- -- 77
2018-07-06 14:00:00 22.2 12 Nordeste 22 Nordeste 0 -- -- 79
2018-07-06 13:00:00 22.2 11 Nordeste 18 Nordeste 0 -- -- 78
2018-07-06 12:00:00 21.9 8 Nordeste 14 Nordeste 0 -- -- 81
2018-07-06 11:00:00 21.1 8 Nordeste 15 Nordeste 0 -- -- 83
2018-07-06 10:00:00 19.6 3 Sudeste 9 Sudeste 0 -- -- 90
2018-07-06 09:00:00 18.4 2 Sudoeste 9 Sur 0 -- -- 96
2018-07-06 08:00:00 17.7 4 Sur 6 Sur 0 -- -- 97
2018-07-06 07:00:00 17.7 3 Sur 8 Sur 0 -- -- 97
2018-07-06 06:00:00 17.8 3 Sur 8 Sudeste 0 -- -- 97
2018-07-06 05:00:00 17.9 3 Sudeste 6 Sur 0 -- -- 96
2018-07-06 04:00:00 18.1 3 Sur 8 Sur 0 -- -- 96
2018-07-06 03:00:00 18.2 3 Sur 9 Sudeste 0 -- -- 96
2018-07-06 02:00:00 18.5 4 Sur 13 Sur 0 -- -- 95
2018-07-06 01:00:00 18.6 4 Sur 11 Sudeste 0 -- -- 94
2018-07-06 00:00:00 18.9 4 Sur 6 Sur 0 -- -- 93
2018-07-05 23:00:00 19.1 2 Sudoeste 6 Oeste 0 -- -- 89
2018-07-05 22:00:00 19.7 3 Oeste 6 Noroeste 0 -- -- 85
2018-07-05 21:00:00 20.1 5 Oeste 10 Noroeste 0 -- -- 82
2018-07-05 20:00:00 20.7 5 Noroeste 19 Noroeste 0 -- -- 80
2018-07-05 19:00:00 21.1 9 Noroeste 18 Oeste 0 -- -- 79
2018-07-05 18:00:00 21.4 9 Oeste 19 Noroeste 0 -- -- 78
2018-07-05 17:00:00 19.9 8 Sudoeste 14 Sudoeste 0 -- -- 88
2018-07-05 16:00:00 19.2 6 Sudoeste 20 Oeste 0 -- -- 90
2018-07-05 15:00:00 19.4 12 Noroeste 24 Noroeste 0.2 -- -- 89
2018-07-05 14:00:00 19.2 9 Oeste 18 Oeste 0.4 -- -- 93
2018-07-05 13:00:00 18.6 6 Oeste 20 Noroeste 2.8 -- -- 93
2018-07-05 12:00:00 18.9 15 Noroeste 36 Noroeste 0.8 -- -- 86
2018-07-05 11:00:00 21.1 8 Oeste 21 Oeste 0 -- -- 77
2018-07-05 10:00:00 20.8 8 Oeste 15 Oeste 0.2 -- -- 77
2018-07-05 09:00:00 19.7 5 Oeste 16 Sudoeste 0 -- -- 80
2018-07-05 08:00:00 18.8 4 Sudoeste 16 Oeste 0 -- -- 83
2018-07-05 07:00:00 17.7 8 Sudoeste 18 Sudoeste 0 -- -- 89
2018-07-05 06:00:00 17.5 5 Sudoeste 15 Sudoeste 0 -- -- 91
2018-07-05 05:00:00 17.5 7 Sudoeste 16 Sudoeste 0 -- -- 92
2018-07-05 04:00:00 17.6 4 Sudoeste 11 Sudoeste 0 -- -- 92
2018-07-05 03:00:00 18 5 Sudoeste 15 Sudoeste 0 -- -- 91
2018-07-05 02:00:00 18.2 5 Sudoeste 13 Oeste 0 -- -- 91
2018-07-05 01:00:00 18 5 Oeste 12 Sur 0 -- -- 93
2018-07-05 00:00:00 18.1 6 Sudoeste 19 Oeste 0 -- -- 94
2018-07-04 23:00:00 18.1 5 Sudoeste 11 Oeste 5.2 -- -- 96
2018-07-04 22:00:00 18.6 3 Norte 11 Sudoeste 0 -- -- 95
2018-07-04 21:00:00 18.5 4 Sur 13 Oeste 1 -- -- 95
2018-07-04 20:00:00 18.9 9 Oeste 17 Oeste 6.6 -- -- 94
2018-07-04 19:00:00 20.2 8 Noroeste 20 Noroeste 0 -- -- 91
2018-07-04 18:00:00 19.5 8 Noroeste 25 Noroeste 1.4 -- -- 95
2018-07-04 17:00:00 20.2 7 Noroeste 18 Noroeste 0 -- -- 94
2018-07-04 16:00:00 19.6 9 Norte 25 Nordeste 7 -- -- 96
2018-07-04 15:00:00 20 6 Norte 10 Noroeste 1.2 -- -- 95
2018-07-04 14:00:00 20.6 0 Calma 8 Oeste 0.4 -- -- 94
2018-07-04 13:00:00 20.5 3 Noroeste 6 Noroeste 0 -- -- 93
2018-07-04 12:00:00 20.5 0 Calma 9 Sur 0.4 -- -- 94
2018-07-04 11:00:00 20.3 0 Calma 7 Sur 0.4 -- -- 93
2018-07-04 10:00:00 20.4 2 Sur 7 Sur 0 -- -- 93
2018-07-04 09:00:00 20.2 0 Calma 7 Sur 0 -- -- 94
2018-07-04 08:00:00 19.8 5 Sur 8 Sur 0 -- -- 95
2018-07-04 07:00:00 19.6 3 Sudeste 5 Sudoeste 0 -- -- 94
2018-07-04 06:00:00 19.7 3 Sur 6 Sur 0 -- -- 93
2018-07-04 05:00:00 19.9 0 Calma 5 Sur 0 -- -- 92
2018-07-04 04:00:00 20.2 0 Calma 8 Sudoeste 0 -- -- 90
2018-07-04 03:00:00 20.4 4 Sudoeste 8 Sudoeste 0 -- -- 87
2018-07-04 02:00:00 20.6 3 Noroeste 5 Oeste 0 -- -- 87
2018-07-04 01:00:00 20.7 4 Noroeste 6 Noroeste 0 -- -- 86
2018-07-04 00:00:00 20.9 3 Noroeste 9 Norte 0 -- -- 85
2018-07-03 23:00:00 21.2 5 Norte 8 Norte 0 -- -- 82
2018-07-03 22:00:00 21.7 6 Nordeste 13 Nordeste 0 -- -- 77
2018-07-03 21:00:00 21.8 7 Nordeste 15 Nordeste 0 -- -- 76
2018-07-03 20:00:00 22.1 8 Nordeste 17 Nordeste 0 -- -- 81
2018-07-03 19:00:00 22.2 8 Nordeste 21 Nordeste 0 -- -- 83
2018-07-03 18:00:00 23.2 12 Nordeste 23 Este 0 -- -- 80
2018-07-03 17:00:00 23.3 10 Nordeste 22 Este 0 -- -- 80
2018-07-03 16:00:00 23.3 11 Nordeste 22 Este 0 -- -- 80
2018-07-03 15:00:00 23.1 12 Nordeste 21 Nordeste 0 -- -- 76
2018-07-03 14:00:00 23.2 9 Nordeste 17 Norte 0 -- -- 78
2018-07-03 13:00:00 23.3 7 Nordeste 17 Norte 0 -- -- 76
2018-07-03 12:00:00 23.2 10 Nordeste 18 Norte 0 -- -- 81
2018-07-03 11:00:00 21.7 6 Noroeste 15 Noroeste 0 -- -- 85
2018-07-03 10:00:00 21.5 4 Nordeste 12 Norte 0 -- -- 87
2018-07-03 09:00:00 20.4 8 Sur 11 Sur 0 -- -- 93
2018-07-03 08:00:00 19.8 5 Sudeste 10 Sudeste 0 -- -- 96
2018-07-03 07:00:00 19.3 4 Sur 10 Sur 0 -- -- 97
2018-07-03 06:00:00 19.3 3 Sur 6 Sudeste 0 -- -- 97
2018-07-03 05:00:00 19.5 4 Sur 10 Sur 0 -- -- 97
2018-07-03 04:00:00 19.6 4 Sur 10 Sur 0 -- -- 97
2018-07-03 03:00:00 19.4 4 Sur 9 Sudeste 0 -- -- 97
2018-07-03 02:00:00 19.4 5 Sur 9 Sur 0 -- -- 97
2018-07-03 01:00:00 19 3 Noroeste 5 Noroeste 0 -- -- 95
2018-07-03 00:00:00 19.8 2 Noroeste 8 Nordeste 0 -- -- 92
2018-07-02 23:00:00 21.1 3 Norte 16 Este 0 -- -- 90
2018-07-02 22:00:00 21.5 8 Nordeste 17 Este 0 -- -- 89
2018-07-02 21:00:00 22 7 Nordeste 16 Nordeste 0 -- -- 87
2018-07-02 20:00:00 22.4 9 Nordeste 19 Este 0 -- -- 84
2018-07-02 19:00:00 23 9 Nordeste 18 Este 0 -- -- 83
2018-07-02 18:00:00 23.2 9 Nordeste 19 Nordeste 0 -- -- 78
2018-07-02 17:00:00 22.9 9 Nordeste 18 Nordeste 0 -- -- 81
2018-07-02 16:00:00 23.2 9 Nordeste 21 Este 0 -- -- 81
2018-07-02 15:00:00 22.9 12 Nordeste 20 Este 0 -- -- 79
2018-07-02 14:00:00 23.5 13 Nordeste 18 Este 0 -- -- 77
2018-07-02 13:00:00 23.8 7 Nordeste 14 Este 0 -- -- 75
2018-07-02 12:00:00 23.2 6 Nordeste 12 Nordeste 0 -- -- 76
2018-07-02 11:00:00 22 6 Este 10 Este 0 -- -- 83
2018-07-02 10:00:00 20 5 Sudeste 14 Sudeste 0 -- -- 94
2018-07-02 09:00:00 18.2 11 Sudeste 15 Sudeste 0 -- -- 98
2018-07-02 08:00:00 16.9 8 Sur 17 Sudeste 0 -- -- 99
2018-07-02 07:00:00 16.7 3 Sudeste 12 Sur 0 -- -- 98
2018-07-02 06:00:00 17.2 5 Sur 15 Sudeste 0 -- -- 98
2018-07-02 05:00:00 17.5 4 Sur 13 Sur 0 -- -- 98
2018-07-02 04:00:00 17.8 6 Sur 13 Sur 0 -- -- 98
2018-07-02 03:00:00 17.9 6 Sur 11 Sur 0 -- -- 98
2018-07-02 02:00:00 17.9 6 Sur 14 Sur 0.4 -- -- 98
2018-07-02 01:00:00 17.3 5 Sudeste 26 Oeste 4.2 -- -- 97
2018-07-02 00:00:00 17.5 23 Oeste 55 Oeste 4.4 -- -- 89
2018-07-01 23:00:00 21.6 11 Noroeste 21 Noroeste 0 -- -- 91
2018-07-01 22:00:00 22 12 Noroeste 25 Noroeste 0 -- -- 89
2018-07-01 21:00:00 23.7 3 Este 5 Nordeste 0 -- -- 83
2018-07-01 20:00:00 23.5 3 Sudeste 6 Oeste 0 -- -- 83
2018-07-01 19:00:00 23.6 5 Nordeste 9 Noroeste 0 -- -- 82
2018-07-01 18:00:00 22.4 6 Noroeste 17 Noroeste 0.2 -- -- 88
2018-07-01 17:00:00 22.5 11 Noroeste 22 Oeste 0 -- -- 86
2018-07-01 16:00:00 23.6 9 Nordeste 19 Nordeste 0 -- -- 84
2018-07-01 15:00:00 23.3 9 Nordeste 22 Este 0 -- -- 86
2018-07-01 14:00:00 24 9 Nordeste 17 Este 0 -- -- 80
2018-07-01 13:00:00 24 8 Nordeste 15 Nordeste 0 -- -- 79
2018-07-01 12:00:00 23.6 8 Nordeste 12 Nordeste 0 -- -- 81
2018-07-01 11:00:00 22.7 5 Este 10 Nordeste 0 -- -- 84
2018-07-01 10:00:00 21.6 6 Este 9 Este 0 -- -- 91
2018-07-01 09:00:00 19.8 4 Sur 8 Sur 0 -- -- 98
2018-07-01 08:00:00 18.9 5 Sur 9 Sudoeste 0 -- -- 99
2018-07-01 07:00:00 17.9 6 Sudoeste 10 Sudoeste 0 -- -- 99
2018-07-01 06:00:00 18.1 2 Sur 3 Sur 0 -- -- 98
2018-07-01 05:00:00 18.7 0 Calma 8 Oeste 0 -- -- 97
2018-07-01 04:00:00 19.9 2 Sudoeste 14 Oeste 0 -- -- 97
2018-07-01 03:00:00 19.9 2 Norte 6 Noroeste 0 -- -- 99
2018-07-01 02:00:00 19.4 0 Calma 4 Este 0 -- -- 99
2018-07-01 01:00:00 18.8 2 Sudeste 6 Noroeste 0 -- -- 98
2018-07-01 00:00:00 19.2 4 Noroeste 8 Noroeste 0 -- -- 97
2018-06-30 23:00:00 19.7 3 Noroeste 6 Noroeste 0 -- -- 95
2018-06-30 22:00:00 20.6 4 Oeste 19 Este 0 -- -- 93
2018-06-30 21:00:00 21.5 8 Nordeste 15 Este 0 -- -- 87
2018-06-30 20:00:00 22.4 5 Sudeste 12 Sur 0 -- -- 90
2018-06-30 19:00:00 21 3 Sudoeste 18 Oeste 6.4 -- -- 91
2018-06-30 18:00:00 22.4 5 Noroeste 28 Noroeste 0 -- -- 78
2018-06-30 17:00:00 23.1 13 Noroeste 26 Noroeste 0 -- -- 85
2018-06-30 16:00:00 23 9 Norte 21 Nordeste 0 -- -- 88
2018-06-30 15:00:00 22.6 10 Nordeste 21 Este 0 -- -- 88
2018-06-30 14:00:00 25.3 11 Nordeste 17 Nordeste 0 -- -- 78
2018-06-30 13:00:00 25 7 Nordeste 12 Nordeste 0 -- -- 76
2018-06-30 12:00:00 23.7 8 Este 14 Noroeste 0 -- -- 79
2018-06-30 11:00:00 23 8 Noroeste 26 Norte 0 -- -- 83
2018-06-30 10:00:00 20.6 3 Sudoeste 10 Sur 0.2 -- -- 93
2018-06-30 09:00:00 19.7 5 Sur 10 Sur 0 -- -- 97
2018-06-30 08:00:00 19 3 Norte 9 Sur 0 -- -- 99
2018-06-30 07:00:00 17.9 4 Sur 15 Sudeste 0 -- -- 99
2018-06-30 06:00:00 17.9 4 Sur 10 Sur 0 -- -- 98
2018-06-30 05:00:00 18.4 4 Sur 8 Sur 0 -- -- 98
2018-06-30 04:00:00 18.8 3 Noroeste 17 Sudeste 0 -- -- 96
2018-06-30 03:00:00 19.3 5 Sur 11 Sur 0 -- -- 97
2018-06-30 02:00:00 19.9 5 Sur 11 Sur 0 -- -- 96
2018-06-30 01:00:00 20 4 Sur 12 Sur 0 -- -- 96
2018-06-30 00:00:00 20.4 4 Sur 10 Noroeste 0 -- -- 95
2018-06-29 23:00:00 20.8 3 Sur 15 Nordeste 0 -- -- 95
2018-06-29 22:00:00 20.8 4 Nordeste 26 Noroeste 0 -- -- 95
2018-06-29 21:00:00 21 4 Sudeste 13 Este 0.6 -- -- 94
2018-06-29 20:00:00 21.4 5 Noroeste 20 Nordeste 0 -- -- 90
2018-06-29 19:00:00 21.7 9 Nordeste 25 Este 0 -- -- 87
2018-06-29 18:00:00 22.4 16 Nordeste 28 Nordeste 0 -- -- 84
2018-06-29 17:00:00 22.8 14 Nordeste 29 Nordeste 0 -- -- 84
2018-06-29 16:00:00 22.4 16 Nordeste 28 Nordeste 0 -- -- 85
2018-06-29 15:00:00 22.6 16 Nordeste 26 Nordeste 0 -- -- 85
2018-06-29 14:00:00 22.4 17 Nordeste 24 Este 0 -- -- 83
2018-06-29 13:00:00 22.1 15 Nordeste 24 Este 0 -- -- 84
2018-06-29 12:00:00 22.6 7 Nordeste 17 Nordeste 0 -- -- 82
2018-06-29 11:00:00 22.1 8 Nordeste 18 Este 0 -- -- 84
2018-06-29 10:00:00 20.2 5 Norte 11 Nordeste 0 -- -- 90
2018-06-29 09:00:00 18.5 2 Sudoeste 5 Sur 0 -- -- 98
2018-06-29 08:00:00 17.4 3 Sur 7 Sur 0 -- -- 98
2018-06-29 07:00:00 16.8 0 Calma 9 Sur 0 -- -- 98
2018-06-29 06:00:00 16.8 4 Sur 9 Sur 0 -- -- 98
2018-06-29 05:00:00 16.6 5 Sur 8 Sur 0 -- -- 97
2018-06-29 04:00:00 16.8 3 Oeste 6 Sur 0 -- -- 96
2018-06-29 03:00:00 17.5 3 Sur 8 Sur 0 -- -- 96
2018-06-29 02:00:00 18.1 3 Sudoeste 8 Oeste 0 -- -- 94
2018-06-29 01:00:00 17.8 2 Oeste 4 Oeste 0 -- -- 94
2018-06-29 00:00:00 18.5 5 Oeste 6 Oeste 0 -- -- 93
2018-06-28 23:00:00 18.9 2 Oeste 6 Oeste 0 -- -- 91
2018-06-28 22:00:00 19.5 3 Noroeste 7 Noroeste 0 -- -- 89
2018-06-28 21:00:00 20.2 2 Oeste 8 Noroeste 0 -- -- 87
2018-06-28 20:00:00 20.2 4 Noroeste 14 Norte 0 -- -- 86
2018-06-28 19:00:00 20.5 5 Norte 12 Nordeste 0 -- -- 85
2018-06-28 18:00:00 20.7 5 Norte 12 Norte 0 -- -- 83
2018-06-28 17:00:00 20.7 6 Nordeste 10 Nordeste 0 -- -- 84
2018-06-28 16:00:00 20.4 5 Norte 13 Nordeste 0 -- -- 84
2018-06-28 15:00:00 20.1 8 Nordeste 14 Nordeste 0 -- -- 85
2018-06-28 14:00:00 19.6 5 Nordeste 15 Norte 0 -- -- 88
2018-06-28 13:00:00 20.1 8 Nordeste 13 Nordeste 0 -- -- 86
2018-06-28 12:00:00 19.7 0 Calma 6 Noroeste 0 -- -- 90
2018-06-28 11:00:00 19.3 3 Sur 8 Sudeste 0 -- -- 92
2018-06-28 10:00:00 18.7 4 Sur 7 Sur 0 -- -- 94
2018-06-28 09:00:00 18.3 4 Sur 6 Sur 0 -- -- 95
2018-06-28 08:00:00 17.9 3 Sur 9 Oeste 0 -- -- 95
2018-06-28 07:00:00 17.7 4 Sudoeste 10 Oeste 0 -- -- 95
2018-06-28 06:00:00 17.8 2 Sudeste 6 Sur 0 -- -- 96
2018-06-28 05:00:00 17.7 3 Sur 9 Sudoeste 0 -- -- 96
2018-06-28 04:00:00 17.7 2 Sur 7 Sudoeste 0 -- -- 97
2018-06-28 03:00:00 17.6 3 Sur 6 Sudoeste 0 -- -- 98
2018-06-28 02:00:00 17.4 3 Oeste 6 Norte 0 -- -- 98
2018-06-28 01:00:00 17.4 0 Calma 14 Sudoeste 0 -- -- 97
2018-06-28 00:00:00 17.8 5 Sudoeste 12 Oeste 0 -- -- 96
2018-06-27 23:00:00 18.5 4 Sudoeste 6 Sudoeste 0 -- -- 96
2018-06-27 22:00:00 18.6 0 Calma 6 Noroeste 0 -- -- 95
2018-06-27 21:00:00 18.7 5 Noroeste 9 Noroeste 0 -- -- 94
2018-06-27 20:00:00 18.9 4 Sudoeste 16 Oeste 0.2 -- -- 95
2018-06-27 19:00:00 18.8 5 Noroeste 12 Oeste 2.2 -- -- 94
2018-06-27 18:00:00 19.2 4 Noroeste 10 Oeste 0 -- -- 92
2018-06-27 17:00:00 19.8 3 Sudoeste 14 Oeste 0 -- -- 87
2018-06-27 16:00:00 20.1 5 Noroeste 14 Noroeste 0 -- -- 88
2018-06-27 15:00:00 19.4 7 Noroeste 19 Noroeste 0 -- -- 90
2018-06-27 14:00:00 19.9 8 Noroeste 15 Oeste 0 -- -- 88
2018-06-27 13:00:00 19.7 8 Noroeste 18 Noroeste 0 -- -- 89
2018-06-27 12:00:00 19.6 9 Noroeste 17 Noroeste 0 -- -- 89
2018-06-27 11:00:00 19.4 7 Oeste 18 Oeste 0 -- -- 91
2018-06-27 10:00:00 19.1 7 Oeste 13 Oeste 0 -- -- 93
2018-06-27 09:00:00 18.5 2 Sudoeste 14 Oeste 2.4 -- -- 94
2018-06-27 08:00:00 18.4 8 Oeste 16 Oeste 0 -- -- 92
2018-06-27 07:00:00 18.5 8 Oeste 18 Oeste 0 -- -- 89
2018-06-27 06:00:00 18.3 2 Sudoeste 12 Noroeste 0 -- -- 89
2018-06-27 05:00:00 18 5 Noroeste 11 Oeste 0 -- -- 91
2018-06-27 04:00:00 18.3 4 Oeste 11 Noroeste 0 -- -- 91
2018-06-27 03:00:00 18.8 6 Sudeste 14 Sudeste 0 -- -- 90
2018-06-27 02:00:00 18.7 4 Este 10 Sudoeste 0 -- -- 88
2018-06-27 01:00:00 19 4 Oeste 6 Oeste 0 -- -- 85
2018-06-27 00:00:00 19.1 2 Noroeste 27 Oeste 0 -- -- 84
2018-06-26 23:00:00 19.3 18 Noroeste 39 Oeste 0 -- -- 85
2018-06-26 22:00:00 19.8 13 Oeste 25 Oeste 0 -- -- 86
2018-06-26 21:00:00 20.5 17 Oeste 28 Noroeste 0 -- -- 81
2018-06-26 20:00:00 22.3 14 Noroeste 22 Norte 0 -- -- 78
2018-06-26 19:00:00 23.1 13 Noroeste 21 Norte 0 -- -- 77
2018-06-26 18:00:00 23.8 11 Norte 24 Noroeste 0 -- -- 75
2018-06-26 17:00:00 23.4 13 Noroeste 22 Noroeste 0 -- -- 77
2018-06-26 16:00:00 24.1 11 Norte 24 Noroeste 0 -- -- 75
2018-06-26 15:00:00 23.9 12 Nordeste 24 Nordeste 0 -- -- 77
2018-06-26 14:00:00 23.8 10 Nordeste 24 Nordeste 0 -- -- 77
2018-06-26 13:00:00 23.5 11 Nordeste 19 Norte 0 -- -- 78
2018-06-26 12:00:00 23.4 9 Nordeste 15 Nordeste 0 -- -- 78
2018-06-26 11:00:00 22.3 8 Este 12 Este 0 -- -- 81
2018-06-26 10:00:00 20.8 5 Este 9 Sudeste 0 -- -- 81
2018-06-26 09:00:00 18.7 3 Sudeste 10 Sur 0 -- -- 89
2018-06-26 08:00:00 16.1 6 Sur 10 Sur 0 -- -- 96
2018-06-26 07:00:00 14.4 3 Sur 9 Este 0 -- -- 95
2018-06-26 06:00:00 15.4 3 Sur 18 Sur 0 -- -- 94
2018-06-26 05:00:00 15.8 4 Sur 13 Sur 0 -- -- 95
2018-06-26 04:00:00 16.2 11 Sur 19 Sudeste 0 -- -- 94
2018-06-26 03:00:00 15.8 6 Sur 15 Sur 0 -- -- 94
2018-06-26 02:00:00 16.8 9 Sur 17 Sur 0 -- -- 93
2018-06-26 01:00:00 16.2 5 Sur 8 Sur 0 -- -- 93
2018-06-26 00:00:00 17.5 3 Sur 9 Sur 0 -- -- 91
2018-06-25 23:00:00 18.5 3 Noroeste 9 Oeste 0 -- -- 86
2018-06-25 22:00:00 20.5 4 Noroeste 14 Este 0 -- -- 78
2018-06-25 21:00:00 22.1 12 Nordeste 27 Este 0 -- -- 72
2018-06-25 20:00:00 22 15 Nordeste 28 Este 0 -- -- 76
2018-06-25 19:00:00 22.3 13 Nordeste 27 Este 0 -- -- 78
2018-06-25 18:00:00 22.4 16 Nordeste 33 Este 0 -- -- 77
2018-06-25 17:00:00 22.5 19 Nordeste 36 Nordeste 0 -- -- 76
2018-06-25 16:00:00 22.2 24 Nordeste 44 Este 0 -- -- 78
2018-06-25 15:00:00 22.1 28 Este 43 Nordeste 0 -- -- 77
2018-06-25 14:00:00 22.3 27 Nordeste 37 Este 0 -- -- 78
2018-06-25 13:00:00 22.7 19 Nordeste 32 Nordeste 0 -- -- 78
2018-06-25 12:00:00 22.8 15 Nordeste 31 Este 0 -- -- 78
2018-06-25 11:00:00 21.6 22 Nordeste 34 Nordeste 0 -- -- 80
2018-06-25 10:00:00 20.8 2 Sudeste 10 Sur 0 -- -- 80
2018-06-25 09:00:00 19 5 Sur 13 Sur 0 -- -- 83
2018-06-25 08:00:00 16.3 5 Sur 11 Sur 0 -- -- 93
2018-06-25 07:00:00 14.2 4 Sur 10 Sur 0 -- -- 95
2018-06-25 06:00:00 14.9 6 Sur 9 Sur 0 -- -- 93
2018-06-25 05:00:00 15.9 4 Sur 9 Sudeste 0 -- -- 91
2018-06-25 04:00:00 15.9 5 Sur 11 Sudeste 0 -- -- 92
2018-06-25 03:00:00 16.2 4 Sur 12 Sudeste 0 -- -- 92
2018-06-25 02:00:00 16.3 4 Sur 16 Sudoeste 0 -- -- 92
2018-06-25 01:00:00 16.5 8 Sur 14 Sur 0 -- -- 92
2018-06-25 00:00:00 16.9 4 Sur 7 Sur 0 -- -- 89
2018-06-24 23:00:00 18.3 3 Noroeste 10 Norte 0 -- -- 84
2018-06-24 22:00:00 20.8 6 Nordeste 19 Este 0 -- -- 76
2018-06-24 21:00:00 21.8 8 Nordeste 19 Nordeste 0 -- -- 77
2018-06-24 20:00:00 22.7 9 Nordeste 28 Nordeste 0 -- -- 73
2018-06-24 19:00:00 21.8 25 Nordeste 40 Este 0 -- -- 79
2018-06-24 18:00:00 22 27 Nordeste 43 Este 0 -- -- 83
2018-06-24 17:00:00 22.7 27 Nordeste 40 Nordeste 0 -- -- 75
2018-06-24 16:00:00 23.1 21 Nordeste 40 Nordeste 0 -- -- 71
2018-06-24 15:00:00 22.7 23 Nordeste 37 Nordeste 0 -- -- 78
2018-06-24 14:00:00 23 21 Nordeste 35 Nordeste 0 -- -- 72
2018-06-24 13:00:00 22.3 25 Nordeste 36 Nordeste 0 -- -- 72
2018-06-24 12:00:00 23.1 15 Nordeste 25 Nordeste 0 -- -- 68
2018-06-24 11:00:00 22.3 8 Nordeste 18 Nordeste 0 -- -- 73
2018-06-24 10:00:00 20.2 5 Sur 17 Sudeste 0 -- -- 75
2018-06-24 09:00:00 16.7 12 Sur 21 Sudeste 0 -- -- 83
2018-06-24 08:00:00 14.4 9 Sur 17 Sur 0 -- -- 90
2018-06-24 07:00:00 13.6 4 Sur 12 Sudeste 0 -- -- 91
2018-06-24 06:00:00 13.9 5 Sur 15 Sur 0 -- -- 90
2018-06-24 05:00:00 14.1 8 Sur 17 Sudeste 0 -- -- 90
2018-06-24 04:00:00 14.3 6 Sur 17 Sur 0 -- -- 89
2018-06-24 03:00:00 14.8 12 Sur 23 Sur 0 -- -- 89
2018-06-24 02:00:00 14.7 7 Sur 17 Sur 0 -- -- 92
2018-06-24 01:00:00 15.1 7 Sur 13 Sudeste 0 -- -- 93
2018-06-24 00:00:00 15.6 6 Sur 12 Sudoeste 0 -- -- 92
2018-06-23 23:00:00 17.3 0 Calma 11 Este 0 -- -- 85
2018-06-23 22:00:00 19.4 8 Nordeste 22 Este 0 -- -- 79
2018-06-23 21:00:00 20.8 8 Nordeste 21 Nordeste 0 -- -- 74
2018-06-23 20:00:00 20.6 15 Nordeste 26 Este 0 -- -- 73
2018-06-23 19:00:00 20.9 19 Nordeste 33 Nordeste 0 -- -- 73
2018-06-23 18:00:00 20.5 24 Este 38 Nordeste 0 -- -- 77
2018-06-23 17:00:00 20.6 26 Este 41 Nordeste 0 -- -- 78
2018-06-23 16:00:00 20.8 25 Nordeste 39 Nordeste 0 -- -- 73
2018-06-23 15:00:00 20.7 24 Nordeste 35 Nordeste 0 -- -- 75
2018-06-23 14:00:00 21.1 19 Nordeste 33 Nordeste 0 -- -- 78
2018-06-23 13:00:00 20.7 21 Nordeste 33 Nordeste 0 -- -- 79
2018-06-23 12:00:00 20.8 15 Nordeste 29 Este 0 -- -- 78
2018-06-23 11:00:00 20.6 14 Nordeste 23 Este 0 -- -- 74
2018-06-23 10:00:00 18.8 5 Sur 18 Sur 0 -- -- 83
2018-06-23 09:00:00 16.3 13 Sudeste 22 Sudeste 0 -- -- 89
2018-06-23 08:00:00 14.3 9 Sur 18 Sur 0 -- -- 96
2018-06-23 07:00:00 13.4 10 Sur 18 Sur 0 -- -- 98
2018-06-23 06:00:00 12.8 8 Sur 12 Sur 0 -- -- 98
2018-06-23 05:00:00 12.9 4 Sur 8 Sudoeste 0 -- -- 98
2018-06-23 04:00:00 13 3 Noroeste 8 Sudoeste 0 -- -- 98
2018-06-23 03:00:00 13.5 3 Oeste 5 Noroeste 0 -- -- 96
2018-06-23 02:00:00 14.8 4 Sur 14 Sudeste 0 -- -- 96
2018-06-23 01:00:00 15.4 5 Sur 9 Sur 0 -- -- 95
2018-06-23 00:00:00 16.2 5 Sur 8 Sur 0 -- -- 93
2018-06-22 23:00:00 17.3 2 Sudoeste 10 Este 0 -- -- 87
2018-06-22 22:00:00 19.3 6 Nordeste 13 Este 0 -- -- 80
2018-06-22 21:00:00 20 7 Nordeste 17 Este 0 -- -- 78
2018-06-22 20:00:00 20 11 Este 21 Nordeste 0 -- -- 80
2018-06-22 19:00:00 20.4 9 Nordeste 24 Este 0 -- -- 80
2018-06-22 18:00:00 20.7 13 Nordeste 25 Este 0 -- -- 80
2018-06-22 17:00:00 21 14 Nordeste 27 Nordeste 0 -- -- 81
2018-06-22 16:00:00 21.1 16 Nordeste 30 Este 0 -- -- 81
2018-06-22 15:00:00 21.5 15 Nordeste 28 Nordeste 0 -- -- 81
2018-06-22 14:00:00 21 17 Nordeste 28 Nordeste 0 -- -- 82
2018-06-22 13:00:00 21.7 13 Nordeste 21 Nordeste 0 -- -- 81
2018-06-22 12:00:00 22 8 Norte 14 Nordeste 0 -- -- 82
2018-06-22 11:00:00 21.5 5 Este 8 Este 0 -- -- 86
2018-06-22 10:00:00 20.4 3 Norte 8 Norte 0 -- -- 90
2018-06-22 09:00:00 19.9 2 Sur 6 Sur 0 -- -- 94
2018-06-22 08:00:00 19.2 0 Calma 7 Noroeste 0 -- -- 95
2018-06-22 07:00:00 19.2 3 Noroeste 5 Oeste 0 -- -- 94
2018-06-22 06:00:00 19.2 2 Noroeste 6 Oeste 0 -- -- 93
2018-06-22 05:00:00 19.3 3 Sudoeste 5 Sudoeste 0 -- -- 94
2018-06-22 04:00:00 19.2 3 Oeste 6 Sudoeste 0 -- -- 94
2018-06-22 03:00:00 19.6 3 Oeste 8 Norte 0 -- -- 93
2018-06-22 02:00:00 19.9 5 Noroeste 9 Noroeste 0 -- -- 93
2018-06-22 01:00:00 20 4 Noroeste 8 Noroeste 0 -- -- 93
2018-06-22 00:00:00 20.2 6 Noroeste 12 Noroeste 0 -- -- 92
2018-06-21 23:00:00 20.3 5 Noroeste 9 Oeste 0 -- -- 93
2018-06-21 22:00:00 20.2 5 Noroeste 19 Noroeste 0 -- -- 93
2018-06-21 21:00:00 21.1 10 Noroeste 22 Oeste 0 -- -- 87
2018-06-21 20:00:00 22.2 9 Noroeste 27 Noroeste 0 -- -- 81
2018-06-21 19:00:00 22.9 14 Noroeste 26 Noroeste 0 -- -- 79
2018-06-21 18:00:00 24.4 16 Noroeste 25 Noroeste 0 -- -- 74
2018-06-21 17:00:00 24.5 12 Noroeste 27 Oeste 0 -- -- 75
2018-06-21 16:00:00 24.4 12 Noroeste 24 Noroeste 0 -- -- 75
2018-06-21 15:00:00 23.3 14 Noroeste 28 Noroeste 0 -- -- 79
2018-06-21 14:00:00 22.7 14 Noroeste 26 Noroeste 0 -- -- 82
2018-06-21 13:00:00 22.2 13 Noroeste 26 Noroeste 0 -- -- 83
2018-06-21 12:00:00 22 10 Noroeste 19 Oeste 0 -- -- 84
2018-06-21 11:00:00 21.8 8 Noroeste 17 Noroeste 0 -- -- 82
2018-06-21 10:00:00 21.2 4 Oeste 12 Sudoeste 0 -- -- 85
2018-06-21 09:00:00 20.4 6 Oeste 11 Oeste 0 -- -- 89
2018-06-21 08:00:00 19.7 2 Oeste 6 Oeste 0 -- -- 92
2018-06-21 07:00:00 19.5 4 Oeste 7 Oeste 0 -- -- 92
2018-06-21 06:00:00 19.5 4 Noroeste 7 Oeste 0 -- -- 92
2018-06-21 05:00:00 19.6 3 Oeste 10 Sudoeste 0 -- -- 91
2018-06-21 04:00:00 19.6 5 Sudoeste 10 Oeste 0 -- -- 91
2018-06-21 03:00:00 19.6 4 Sudoeste 14 Noroeste 0 -- -- 90
2018-06-21 02:00:00 19.7 6 Oeste 12 Noroeste 0 -- -- 89
2018-06-21 01:00:00 19.9 7 Noroeste 17 Oeste 0 -- -- 89
2018-06-21 00:00:00 20 8 Noroeste 15 Noroeste 0 -- -- 88
2018-06-20 23:00:00 20.2 9 Noroeste 18 Noroeste 0 -- -- 88
2018-06-20 22:00:00 20.7 9 Noroeste 14 Noroeste 0 -- -- 87
2018-06-20 21:00:00 21.5 7 Noroeste 14 Noroeste 0 -- -- 85
2018-06-20 20:00:00 21.8 8 Noroeste 14 Noroeste 0 -- -- 84
2018-06-20 19:00:00 21.2 6 Nordeste 16 Norte 0 -- -- 86
2018-06-20 18:00:00 21.2 11 Nordeste 16 Este 0 -- -- 86
2018-06-20 17:00:00 21.7 10 Nordeste 18 Nordeste 0 -- -- 84
2018-06-20 16:00:00 22.4 9 Nordeste 19 Norte 0 -- -- 83
2018-06-20 15:00:00 22.3 12 Nordeste 21 Nordeste 0 -- -- 83
2018-06-20 14:00:00 22.8 10 Nordeste 19 Norte 0 -- -- 82
2018-06-20 13:00:00 22 11 Nordeste 17 Nordeste 0 -- -- 83
2018-06-20 12:00:00 21.8 9 Nordeste 14 Norte 0 -- -- 84
2018-06-20 11:00:00 21.3 8 Nordeste 11 Nordeste 0 -- -- 83
2018-06-20 10:00:00 20.5 3 Este 12 Sur 0 -- -- 86
2018-06-20 09:00:00 18.1 6 Sur 10 Sudeste 0 -- -- 97
2018-06-20 08:00:00 15.8 4 Sur 7 Sudeste 0 -- -- 99
2018-06-20 07:00:00 14.8 3 Sur 8 Sudeste 0 -- -- 99
2018-06-20 06:00:00 14.9 3 Sur 8 Sudeste 0 -- -- 98
2018-06-20 05:00:00 15.2 0 Calma 4 Sur 0 -- -- 97
2018-06-20 04:00:00 15.7 0 Calma 3 Noroeste 0 -- -- 97
2018-06-20 03:00:00 16.6 0 Calma 3 Noroeste 0 -- -- 95
2018-06-20 02:00:00 17.7 0 Calma 8 Nordeste 0 -- -- 92
2018-06-20 01:00:00 18.9 4 Sur 8 Sur 0 -- -- 90
2018-06-20 00:00:00 19.3 0 Calma 9 Sur 0 -- -- 88
2018-06-19 23:00:00 19.1 3 Sur 4 Sudeste 0 -- -- 88
2018-06-19 22:00:00 19.3 2 Sudoeste 19 Este 0 -- -- 87
2018-06-19 21:00:00 19.4 15 Este 24 Nordeste 0 -- -- 86
2018-06-19 20:00:00 19.5 16 Este 28 Este 0 -- -- 86
2018-06-19 19:00:00 19.8 20 Este 30 Este 0 -- -- 84
2018-06-19 18:00:00 19.9 11 Este 26 Este 0 -- -- 85
2018-06-19 17:00:00 19.5 15 Este 35 Nordeste 0 -- -- 85
2018-06-19 16:00:00 19.5 17 Este 32 Este 0 -- -- 85
2018-06-19 15:00:00 19.1 16 Nordeste 25 Este 0 -- -- 87
2018-06-19 14:00:00 19.7 14 Nordeste 25 Este 0 -- -- 86
2018-06-19 13:00:00 18.9 9 Nordeste 18 Este 0 -- -- 89
2018-06-19 12:00:00 18.1 10 Este 16 Nordeste 0 -- -- 90
2018-06-19 11:00:00 17.9 3 Este 15 Este 0 -- -- 93
2018-06-19 10:00:00 17.9 5 Nordeste 8 Nordeste 0 -- -- 92
2018-06-19 09:00:00 17.1 3 Sudoeste 5 Sur 0 -- -- 95
2018-06-19 08:00:00 16.7 0 Calma 8 Este 0 -- -- 97
2018-06-19 07:00:00 16.6 3 Nordeste 5 Nordeste 0 -- -- 96
2018-06-19 06:00:00 16.6 2 Sur 3 Norte 0 -- -- 96
2018-06-19 05:00:00 16.6 0 Calma 6 Noroeste 0 -- -- 96
2018-06-19 04:00:00 16.8 3 Nordeste 12 Nordeste 0.2 -- -- 97
2018-06-19 03:00:00 17 2 Este 4 Norte 1.2 -- -- 96
2018-06-19 02:00:00 17.2 3 Sur 6 Noroeste 0.2 -- -- 94
2018-06-19 01:00:00 17.5 0 Calma 6 Oeste 0 -- -- 91
2018-06-19 00:00:00 17.8 3 Oeste 8 Oeste 0 -- -- 90
2018-06-18 23:00:00 18.4 4 Norte 10 Norte 0 -- -- 87
2018-06-18 22:00:00 18.6 3 Noroeste 7 Norte 0 -- -- 84
2018-06-18 21:00:00 18.8 4 Nordeste 8 Norte 0 -- -- 81
2018-06-18 20:00:00 19.1 2 Oeste 7 Este 0 -- -- 82
2018-06-18 19:00:00 18.9 4 Este 13 Nordeste 0 -- -- 84
2018-06-18 18:00:00 18.6 6 Norte 21 Nordeste 0 -- -- 86
2018-06-18 17:00:00 18.8 10 Norte 24 Nordeste 0 -- -- 90
2018-06-18 16:00:00 20.4 12 Norte 31 Nordeste 0 -- -- 86
2018-06-18 15:00:00 21.2 12 Norte 22 Noroeste 0 -- -- 79
2018-06-18 14:00:00 20.8 11 Noroeste 20 Noroeste 0 -- -- 79
2018-06-18 13:00:00 20.6 9 Noroeste 21 Oeste 0 -- -- 78
2018-06-18 12:00:00 19.9 8 Noroeste 15 Noroeste 0 -- -- 79
2018-06-18 11:00:00 19.3 3 Oeste 14 Sur 0 -- -- 79
2018-06-18 10:00:00 17.8 9 Sur 14 Sudeste 0 -- -- 87
2018-06-18 09:00:00 16 6 Sur 14 Sur 0 -- -- 93
2018-06-18 08:00:00 14.6 8 Sur 15 Sudeste 0 -- -- 96
2018-06-18 07:00:00 14 7 Sur 17 Sur 0 -- -- 97
2018-06-18 06:00:00 14 6 Sur 13 Sudeste 0 -- -- 98
2018-06-18 05:00:00 13.4 5 Sur 10 Sur 0 -- -- 98
2018-06-18 04:00:00 13.4 6 Sur 10 Sur 0 -- -- 97
2018-06-18 03:00:00 13.5 6 Sur 10 Sur 0 -- -- 96
2018-06-18 02:00:00 13.8 6 Sur 9 Sur 0 -- -- 95
2018-06-18 01:00:00 14.6 5 Sur 9 Sur 0 -- -- 94
2018-06-18 00:00:00 15.4 5 Sur 8 Sur 0 -- -- 92
2018-06-17 23:00:00 16.3 0 Calma 4 Noroeste 0 -- -- 87
2018-06-17 22:00:00 18 2 Norte 12 Nordeste 0 -- -- 80
2018-06-17 21:00:00 19.2 5 Nordeste 13 Este 0 -- -- 74
2018-06-17 20:00:00 19.6 6 Nordeste 14 Nordeste 0 -- -- 73
2018-06-17 19:00:00 19.8 8 Nordeste 16 Nordeste 0 -- -- 73
2018-06-17 18:00:00 20.3 9 Nordeste 20 Norte 0 -- -- 71
2018-06-17 17:00:00 20.2 10 Nordeste 27 Este 0 -- -- 73
2018-06-17 16:00:00 20.3 13 Nordeste 20 Nordeste 0 -- -- 72
2018-06-17 15:00:00 20.3 9 Nordeste 18 Nordeste 0 -- -- 73
2018-06-17 14:00:00 19.9 10 Nordeste 19 Nordeste 0 -- -- 75
2018-06-17 13:00:00 20.1 11 Nordeste 22 Nordeste 0 -- -- 75
2018-06-17 12:00:00 19.8 10 Nordeste 19 Norte 0 -- -- 79
2018-06-17 11:00:00 19.4 6 Noroeste 13 Noroeste 0 -- -- 76
2018-06-17 10:00:00 18.4 6 Sudoeste 12 Sudoeste 0 -- -- 86
2018-06-17 09:00:00 16.2 6 Sudeste 11 Sudeste 0 -- -- 96
2018-06-17 08:00:00 15.1 5 Sur 9 Sudeste 0 -- -- 97
2018-06-17 07:00:00 14.5 3 Sur 12 Sudeste 0 -- -- 97
2018-06-17 06:00:00 14.1 6 Sur 13 Sur 0 -- -- 97
2018-06-17 05:00:00 13.7 8 Sur 12 Sur 0 -- -- 96
2018-06-17 04:00:00 14 6 Sur 10 Sur 0 -- -- 96
2018-06-17 03:00:00 15 6 Sur 9 Sur 0 -- -- 94
2018-06-17 02:00:00 15.6 3 Sur 7 Sudeste 0 -- -- 92
2018-06-17 01:00:00 16.3 5 Sur 8 Sudeste 0 -- -- 91
2018-06-17 00:00:00 16.9 0 Calma 5 Noroeste 0 -- -- 88